Time;durP1;ratioP1;P1;durP2;ratioP2;P2;SDS_P1;SDS_P2;PMS_P1;PMS_P2;Temp;Humidity;BMP_temperature;BMP_pressure;BME280_temperature;BME280_humidity;BME280_pressure;Samples;Min_cycle;Max_cycle;Signal;HPM_P1;HPM_P2
2022/06/13 00:01:12;;;;;;;11.57;4.57;;;15.00;99.90;;;;;;4891247;29;20076;-84
2022/06/13 00:03:39;;;;;;;10.35;4.30;;;15.00;99.90;;;;;;4864037;29;20036;-84
2022/06/13 00:06:05;;;;;;;13.18;4.97;;;14.90;99.90;;;;;;4867318;29;20079;-84
2022/06/13 00:08:31;;;;;;;10.65;4.80;;;14.90;99.90;;;;;;4893623;29;20128;-84
2022/06/13 00:10:57;;;;;;;12.40;5.32;;;15.00;99.90;;;;;;4877725;29;20454;-84
2022/06/13 00:13:24;;;;;;;10.13;4.60;;;15.00;99.90;;;;;;4894308;29;20058;-84
2022/06/13 00:15:50;;;;;;;12.18;5.45;;;15.00;99.90;;;;;;4880090;29;20056;-84
2022/06/13 00:18:16;;;;;;;10.20;4.93;;;14.90;99.90;;;;;;4850805;29;20123;-84
2022/06/13 00:20:42;;;;;;;10.10;5.07;;;15.00;99.90;;;;;;4877774;29;20405;-84
2022/06/13 00:23:08;;;;;;;10.32;4.53;;;14.90;99.90;;;;;;4874872;29;20044;-84
2022/06/13 00:25:34;;;;;;;14.55;5.40;;;14.90;99.90;;;;;;4875528;29;20067;-85
2022/06/13 00:28:00;;;;;;;12.88;5.68;;;14.80;99.90;;;;;;4893569;29;20047;-84
2022/06/13 00:30:26;;;;;;;14.05;5.43;;;14.90;99.90;;;;;;4877341;29;20429;-84
2022/06/13 00:32:52;;;;;;;11.23;4.93;;;14.90;99.90;;;;;;4862285;29;20047;-86
2022/06/13 00:35:18;;;;;;;11.48;5.80;;;14.90;99.90;;;;;;4858071;29;20556;-84
2022/06/13 00:37:45;;;;;;;11.15;5.57;;;14.90;99.90;;;;;;4890234;29;20048;-84
2022/06/13 00:40:11;;;;;;;11.68;5.28;;;14.90;99.90;;;;;;4852002;29;20084;-85
2022/06/13 00:42:38;;;;;;;9.65;5.18;;;14.80;99.90;;;;;;4877714;29;20040;-85
2022/06/13 00:45:34;;;;;;;13.07;5.68;;;14.90;99.90;;;;;;4863076;29;20124;-85
2022/06/13 00:48:02;;;;;;;12.70;5.65;;;14.90;99.90;;;;;;4864791;29;20048;-84
2022/06/13 00:50:36;;;;;;;10.00;5.07;;;14.90;99.90;;;;;;4877289;29;20044;-84
2022/06/13 00:53:10;;;;;;;10.38;4.78;;;14.90;99.90;;;;;;4871214;29;20080;-85
2022/06/13 00:56:00;;;;;;;10.45;5.90;;;14.90;99.90;;;;;;4876075;29;20139;-85
2022/06/13 00:58:29;;;;;;;14.65;6.10;;;14.90;99.90;;;;;;4892901;29;20095;-84
2022/06/13 01:00:57;;;;;;;13.93;5.55;;;14.90;99.90;;;;;;4877943;29;20040;-85
2022/06/13 01:03:25;;;;;;;16.15;5.43;;;14.90;99.90;;;;;;4893214;29;20041;-85
2022/06/13 01:05:53;;;;;;;13.57;5.80;;;14.90;99.90;;;;;;4878873;29;20041;-85
2022/06/13 01:08:21;;;;;;;13.20;6.20;;;14.90;99.90;;;;;;4861560;29;20076;-85
2022/06/13 01:13:41;;;;;;;12.98;5.93;;;14.90;99.90;;;;;;4898653;29;20396;-85
2022/06/13 01:16:19;;;;;;;11.38;5.70;;;14.90;99.90;;;;;;4886522;29;20087;-85
2022/06/13 01:19:19;;;;;;;13.68;5.47;;;14.90;99.90;;;;;;4888796;29;20055;-85
2022/06/13 01:22:07;;;;;;;15.35;6.18;;;14.80;99.90;;;;;;4903248;29;20138;-85
2022/06/13 01:24:44;;;;;;;13.68;5.22;;;14.80;99.90;;;;;;4892459;29;20071;-85
2022/06/13 01:27:48;;;;;;;11.13;5.35;;;14.80;99.90;;;;;;4910066;29;20045;-85
2022/06/13 01:30:43;;;;;;;14.63;5.25;;;14.80;99.90;;;;;;4896239;29;20048;-86
2022/06/13 01:33:27;;;;;;;12.10;4.75;;;14.70;99.90;;;;;;4898610;29;20040;-86
2022/06/13 01:36:12;;;;;;;10.70;4.95;;;14.70;99.90;;;;;;4896639;29;20048;-85
2022/06/13 01:38:47;;;;;;;9.00;4.43;;;14.60;99.90;;;;;;4894223;29;20123;-85
2022/06/13 01:41:40;;;;;;;12.00;4.85;;;14.60;99.90;;;;;;4895029;29;20050;-85
2022/06/13 01:44:23;;;;;;;12.93;4.80;;;14.60;99.90;;;;;;4881800;29;20042;-85
2022/06/13 01:47:03;;;;;;;12.00;5.30;;;14.60;99.90;;;;;;4899390;29;20075;-85
2022/06/13 01:49:52;;;;;;;10.73;4.97;;;14.60;99.90;;;;;;4895402;29;20402;-85
2022/06/13 01:52:35;;;;;;;15.02;5.30;;;14.60;99.90;;;;;;4882189;29;20044;-85
2022/06/13 01:55:20;;;;;;;14.10;5.40;;;14.50;99.90;;;;;;4879481;29;20053;-85
2022/06/13 01:58:09;;;;;;;12.48;5.75;;;14.40;99.90;;;;;;4879699;29;20079;-85
2022/06/13 02:00:36;;;;;;;13.40;5.75;;;14.50;99.90;;;;;;4894933;29;20053;-85
2022/06/13 02:03:27;;;;;;;15.73;6.15;;;14.50;99.90;;;;;;4895610;29;20059;-85
2022/06/13 02:06:00;;;;;;;14.70;6.35;;;14.50;99.90;;;;;;4877983;29;20068;-86
2022/06/13 02:08:34;;;;;;;11.90;6.13;;;14.50;99.90;;;;;;4895016;29;20040;-85
2022/06/13 02:11:41;;;;;;;13.82;6.82;;;14.50;99.90;;;;;;4876759;29;20052;-85
2022/06/13 02:14:38;;;;;;;13.85;6.00;;;14.40;99.90;;;;;;4805377;29;20186;-85
2022/06/13 02:17:11;;;;;;;;;;;14.40;99.90;;;;;;4790492;29;20512;-85
2022/06/13 02:20:06;;;;;;;12.40;6.10;;;14.40;99.90;;;;;;4862957;29;20341;-85
2022/06/13 02:22:40;;;;;;;12.02;6.10;;;14.40;99.90;;;;;;4890436;29;20041;-85
2022/06/13 02:25:22;;;;;;;16.17;7.00;;;14.40;99.90;;;;;;4880002;29;20120;-85
2022/06/13 02:27:55;;;;;;;16.92;6.85;;;14.40;99.90;;;;;;4891393;29;20080;-85
2022/06/13 02:30:26;;;;;;;14.27;6.72;;;14.40;99.90;;;;;;4893095;29;20107;-85
2022/06/13 02:33:16;;;;;;;12.93;7.07;;;14.30;99.90;;;;;;4891343;29;20035;-85
2022/06/13 02:35:50;;;;;;;17.95;7.57;;;14.40;99.90;;;;;;4877765;29;20048;-85
2022/06/13 02:38:30;;;;;;;14.82;7.93;;;14.30;99.90;;;;;;4878661;29;20140;-85
2022/06/13 02:41:05;;;;;;;16.83;7.20;;;14.30;99.90;;;;;;4875583;29;20040;-85
2022/06/13 02:43:39;;;;;;;14.40;7.82;;;14.30;99.90;;;;;;4888530;29;20090;-84
2022/06/13 02:46:11;;;;;;;17.35;8.60;;;14.30;99.90;;;;;;4891764;29;20052;-84
2022/06/13 02:48:42;;;;;;;19.58;8.35;;;14.30;99.90;;;;;;4894598;29;20064;-85
2022/06/13 02:51:18;;;;;;;15.15;8.10;;;14.20;99.90;;;;;;4894064;29;20048;-85
2022/06/13 02:53:56;;;;;;;;;;;14.20;99.90;;;;;;4894981;29;20037;-85
2022/06/13 02:56:31;;;;;;;14.05;7.78;;;14.20;99.90;;;;;;4876078;29;19926;-84
2022/06/13 02:59:16;;;;;;;18.33;8.45;;;14.20;99.90;;;;;;4893074;29;20048;-84
2022/06/13 03:01:45;;;;;;;18.30;8.48;;;14.20;99.90;;;;;;4891865;29;20115;-85
2022/06/13 03:04:37;;;;;;;17.30;8.63;;;14.20;99.90;;;;;;4879151;29;20036;-85
2022/06/13 03:07:33;;;;;;;22.67;9.55;;;14.20;99.90;;;;;;4880401;29;20123;-84
2022/06/13 03:10:14;;;;;;;18.98;9.00;;;14.20;99.90;;;;;;4879878;29;20048;-85
2022/06/13 03:13:03;;;;;;;17.40;9.68;;;13.90;99.90;;;;;;4877962;29;20047;-86
2022/06/13 03:15:47;;;;;;;18.45;9.23;;;14.20;99.90;;;;;;4872611;29;20064;-86
2022/06/13 03:18:28;;;;;;;16.70;9.40;;;14.10;99.90;;;;;;4856517;29;20056;-85
2022/06/13 03:20:59;;;;;;;17.90;9.00;;;14.20;99.90;;;;;;4862595;29;20067;-85
2022/06/13 03:23:39;;;;;;;18.33;9.18;;;14.10;99.90;;;;;;4859121;29;20123;-86
2022/06/13 03:26:42;;;;;;;18.35;9.18;;;14.10;99.90;;;;;;4877168;29;20695;-85
2022/06/13 03:29:30;;;;;;;21.52;9.32;;;14.10;99.90;;;;;;4878571;29;20059;-85
2022/06/13 03:32:05;;;;;;;20.02;9.82;;;14.20;99.90;;;;;;4875271;29;20052;-85
2022/06/13 03:34:42;;;;;;;18.98;9.10;;;14.20;99.90;;;;;;4876132;29;20045;-86
2022/06/13 03:37:31;;;;;;;20.17;9.82;;;14.20;99.90;;;;;;4858321;29;20135;-85
2022/06/13 03:40:05;;;;;;;16.75;9.35;;;14.20;99.90;;;;;;4857196;29;20187;-86
2022/06/13 03:43:02;;;;;;;18.33;9.07;;;14.20;99.90;;;;;;4873804;29;20040;-86
2022/06/13 03:46:00;;;;;;;16.65;9.18;;;14.30;99.90;;;;;;4857306;29;20047;-85
2022/06/13 03:48:37;;;;;;;20.48;9.25;;;14.30;99.90;;;;;;4826380;29;20051;-85
2022/06/13 03:51:11;;;;;;;24.65;10.20;;;14.20;99.90;;;;;;4859272;29;20043;-86
2022/06/13 03:53:44;;;;;;;17.17;9.00;;;14.30;99.90;;;;;;4858505;29;20040;-86
2022/06/13 03:56:16;;;;;;;19.27;9.15;;;14.30;99.90;;;;;;4871427;29;20044;-85
2022/06/13 03:58:55;;;;;;;15.48;9.43;;;14.30;99.90;;;;;;4858056;29;20079;-84
2022/06/13 04:01:26;;;;;;;20.23;9.43;;;14.30;99.90;;;;;;4872170;29;20049;-86
2022/06/13 04:03:54;;;;;;;16.92;8.65;;;14.40;99.90;;;;;;4858754;29;20169;-86
2022/06/13 04:06:33;;;;;;;19.58;9.93;;;14.40;99.90;;;;;;4857859;29;20049;-85
2022/06/13 04:09:08;;;;;;;19.13;9.02;;;14.40;99.90;;;;;;4879380;29;20076;-85
2022/06/13 04:11:59;;;;;;;19.75;9.07;;;14.50;99.90;;;;;;4876917;29;20371;-85
2022/06/13 04:14:27;;;;;;;18.90;9.88;;;14.40;99.90;;;;;;4857757;29;20048;-86
2022/06/13 04:17:21;;;;;;;20.75;9.65;;;14.40;99.90;;;;;;4899070;29;20063;-85
2022/06/13 04:20:12;;;;;;;19.75;9.23;;;14.50;99.90;;;;;;4879023;29;20056;-85
2022/06/13 04:23:09;;;;;;;16.95;6.78;;;14.50;99.90;;;;;;4877453;29;20115;-85
2022/06/13 04:25:41;;;;;;;10.75;5.68;;;14.50;99.90;;;;;;4892800;29;20051;-85
2022/06/13 04:28:18;;;;;;;12.82;5.25;;;14.50;99.90;;;;;;4879359;29;20063;-85
2022/06/13 04:30:46;;;;;;;9.50;3.70;;;14.50;99.90;;;;;;4878705;29;20088;-85
2022/06/13 04:33:17;;;;;;;8.65;3.30;;;14.60;99.90;;;;;;4863580;29;20067;-84
2022/06/13 04:35:45;;;;;;;9.02;3.38;;;14.60;99.90;;;;;;4883904;29;20036;-84
2022/06/13 04:38:14;;;;;;;14.82;3.65;;;14.60;99.90;;;;;;4895959;29;20040;-84
2022/06/13 04:40:45;;;;;;;6.75;3.40;;;14.70;99.90;;;;;;4880895;29;20036;-84
2022/06/13 04:43:14;;;;;;;11.30;3.63;;;14.80;99.90;;;;;;4892041;29;20044;-84
2022/06/13 04:46:00;;;;;;;7.55;3.50;;;14.80;99.90;;;;;;4892015;29;20036;-84
2022/06/13 04:48:26;;;;;;;10.95;3.22;;;14.80;99.90;;;;;;4876833;29;20484;-84
2022/06/13 04:50:57;;;;;;;7.90;2.70;;;14.90;99.90;;;;;;4864869;29;20071;-85
2022/06/13 04:53:29;;;;;;;9.55;3.13;;;14.90;99.90;;;;;;4878248;29;20107;-84
2022/06/13 04:55:55;;;;;;;10.10;3.00;;;15.00;99.90;;;;;;4894351;29;20047;-83
2022/06/13 04:58:36;;;;;;;7.25;2.80;;;15.00;99.90;;;;;;4876639;29;20048;-84
2022/06/13 05:01:26;;;;;;;9.98;3.08;;;15.00;99.90;;;;;;4895020;29;20048;-85
2022/06/13 05:03:53;;;;;;;8.38;2.83;;;15.00;99.90;;;;;;4876215;29;20050;-85
2022/06/13 05:06:36;;;;;;;8.75;3.03;;;15.00;99.90;;;;;;4843726;29;20120;-85
2022/06/13 05:09:27;;;;;;;8.43;3.22;;;15.00;99.90;;;;;;4876350;29;20486;-84
2022/06/13 05:12:04;;;;;;;6.65;2.53;;;15.00;99.90;;;;;;4877788;29;20094;-84
2022/06/13 05:14:44;;;;;;;8.75;2.78;;;15.00;99.90;;;;;;4876233;29;20111;-85
2022/06/13 05:17:29;;;;;;;9.63;2.80;;;15.00;99.90;;;;;;4898577;29;20072;-85
2022/06/13 05:20:17;;;;;;;6.70;2.50;;;15.10;99.90;;;;;;4892245;29;20044;-84
2022/06/13 05:23:09;;;;;;;6.88;2.65;;;15.10;99.90;;;;;;4875406;29;20378;-84
2022/06/13 05:25:38;;;;;;;9.32;2.70;;;15.10;99.90;;;;;;4878719;29;20175;-85
2022/06/13 05:28:04;;;;;;;9.73;2.88;;;15.10;99.90;;;;;;4877346;29;20075;-85
2022/06/13 05:30:31;;;;;;;6.35;2.28;;;15.10;99.90;;;;;;4882330;29;20094;-85
2022/06/13 05:32:57;;;;;;;8.50;2.97;;;15.10;99.90;;;;;;4862297;29;20506;-85
2022/06/13 05:35:29;;;;;;;6.07;2.13;;;15.10;99.90;;;;;;4862856;29;20052;-85
2022/06/13 05:37:59;;;;;;;4.93;2.13;;;15.20;99.90;;;;;;4874791;29;20047;-85
2022/06/13 05:40:25;;;;;;;8.32;2.83;;;15.30;99.90;;;;;;4874503;29;20047;-85
2022/06/13 05:42:52;;;;;;;7.50;2.20;;;15.50;99.90;;;;;;4859770;29;20040;-85
2022/06/13 05:45:24;;;;;;;7.97;2.28;;;15.60;99.90;;;;;;4858029;29;20048;-85
2022/06/13 05:47:52;;;;;;;5.72;1.98;;;15.60;99.90;;;;;;4873979;29;20051;-86
2022/06/13 05:50:22;;;;;;;9.30;2.03;;;15.60;99.90;;;;;;4873592;29;20067;-85
2022/06/13 05:52:49;;;;;;;5.68;2.35;;;15.60;99.90;;;;;;4891646;29;20040;-85
2022/06/13 05:55:15;;;;;;;6.28;2.40;;;15.60;99.90;;;;;;4885547;29;20042;-85
2022/06/13 05:57:41;;;;;;;8.65;2.00;;;15.60;99.90;;;;;;4880392;29;20063;-86
2022/06/13 06:00:17;;;;;;;15.73;2.63;;;15.60;99.90;;;;;;4884429;29;20420;-85
2022/06/13 06:02:43;;;;;;;7.20;1.95;;;15.70;99.90;;;;;;4896731;29;20096;-86
2022/06/13 06:05:09;;;;;;;6.47;1.95;;;15.70;99.90;;;;;;4855538;29;20183;-85
2022/06/13 06:07:37;;;;;;;4.05;1.63;;;15.70;99.90;;;;;;4882649;29;20043;-87
2022/06/13 06:10:04;;;;;;;8.32;2.10;;;15.70;99.90;;;;;;4865116;29;20072;-84
2022/06/13 06:12:29;;;;;;;5.40;2.00;;;15.70;99.90;;;;;;4879908;29;20036;-85
2022/06/13 06:14:55;;;;;;;7.32;1.92;;;15.80;99.90;;;;;;4868755;29;20385;-85
2022/06/13 06:17:21;;;;;;;6.50;1.88;;;15.90;99.90;;;;;;4862578;29;20491;-84
2022/06/13 06:19:47;;;;;;;7.38;1.92;;;15.90;99.90;;;;;;4877601;29;20043;-85
2022/06/13 06:22:13;;;;;;;6.90;2.28;;;16.00;99.90;;;;;;4877723;29;20032;-85
2022/06/13 06:24:39;;;;;;;8.25;2.10;;;16.10;99.90;;;;;;4894062;29;20040;-84
2022/06/13 06:27:08;;;;;;;8.18;2.15;;;16.10;99.90;;;;;;4875065;29;20040;-85
2022/06/13 06:29:34;;;;;;;5.78;1.67;;;16.20;99.90;;;;;;4876107;29;20485;-86
2022/06/13 06:32:00;;;;;;;7.70;1.85;;;16.30;99.90;;;;;;4852827;29;20039;-84
2022/06/13 06:34:25;;;;;;;9.15;2.08;;;16.40;99.90;;;;;;4876968;29;20647;-82
2022/06/13 06:36:51;;;;;;;5.32;1.67;;;16.40;99.90;;;;;;4878596;29;20048;-83
2022/06/13 06:39:16;;;;;;;6.85;1.75;;;16.50;99.90;;;;;;4878479;29;20041;-84
2022/06/13 06:41:43;;;;;;;7.57;2.20;;;16.50;99.90;;;;;;4878894;29;20398;-86
2022/06/13 06:44:08;;;;;;;6.50;1.77;;;16.50;99.90;;;;;;4863683;29;20043;-85
2022/06/13 06:46:34;;;;;;;9.45;1.90;;;16.30;99.90;;;;;;4864869;29;20040;-84
2022/06/13 06:48:59;;;;;;;7.28;2.00;;;16.30;99.90;;;;;;4853501;29;20489;-84
2022/06/13 06:51:29;;;;;;;8.25;1.95;;;16.20;99.90;;;;;;4864244;29;20076;-85
2022/06/13 07:02:10;;;;;;;8.18;2.00;;;15.90;99.90;;;;;;4885893;29;20052;-85
2022/06/13 07:04:35;;;;;;;10.45;2.45;;;15.90;99.90;;;;;;4892825;29;20032;-84
2022/06/13 07:07:01;;;;;;;11.18;2.20;;;16.00;99.90;;;;;;4874473;29;20597;-83
2022/06/13 07:09:27;;;;;;;11.73;2.20;;;16.00;99.90;;;;;;4893187;29;20044;-83
2022/06/13 07:11:56;;;;;;;7.00;1.63;;;15.90;99.90;;;;;;4878068;29;20126;-83
2022/06/13 07:14:33;;;;;;;7.80;1.90;;;16.00;99.90;;;;;;4876372;29;20119;-84
2022/06/13 07:17:00;;;;;;;7.43;1.85;;;16.30;99.90;;;;;;4891470;29;20087;-85
2022/06/13 07:19:26;;;;;;;7.28;2.10;;;16.40;99.90;;;;;;4874768;29;20051;-85
2022/06/13 07:21:53;;;;;;;9.10;1.95;;;16.40;99.90;;;;;;4848667;29;20040;-84
2022/06/13 07:24:20;;;;;;;6.97;1.85;;;16.40;99.90;;;;;;4877015;29;20047;-86
2022/06/13 07:26:47;;;;;;;8.13;1.70;;;16.40;99.90;;;;;;4890896;29;20045;-85
2022/06/13 07:29:13;;;;;;;11.68;1.88;;;16.40;99.90;;;;;;4858699;29;20457;-85
2022/06/13 07:31:49;;;;;;;7.60;1.80;;;16.40;99.90;;;;;;4890361;29;20119;-84
2022/06/13 07:34:18;;;;;;;4.47;1.65;;;16.40;99.90;;;;;;4890524;29;20056;-84
2022/06/13 07:36:44;;;;;;;5.70;1.70;;;16.40;99.90;;;;;;4876087;29;20427;-84
2022/06/13 07:39:10;;;;;;;6.05;1.83;;;16.40;99.90;;;;;;4873839;29;20040;-84
2022/06/13 07:41:38;;;;;;;9.02;1.65;;;16.40;99.90;;;;;;4889952;29;20060;-84
2022/06/13 07:44:05;;;;;;;2.95;1.13;;;16.40;99.90;;;;;;4888892;29;20040;-84
2022/06/13 07:46:31;;;;;;;11.15;1.83;;;16.40;99.90;;;;;;4861651;29;20103;-84
2022/06/13 07:48:58;;;;;;;5.72;1.70;;;16.50;99.90;;;;;;4889347;29;20139;-84
2022/06/13 07:51:27;;;;;;;7.90;1.30;;;16.50;99.90;;;;;;4874291;29;20038;-84
2022/06/13 07:53:53;;;;;;;6.10;1.63;;;16.60;99.90;;;;;;4857682;29;20410;-84
2022/06/13 07:56:22;;;;;;;5.97;1.70;;;16.80;99.90;;;;;;4889181;29;20044;-84
2022/06/13 07:58:50;;;;;;;7.43;1.60;;;16.80;99.90;;;;;;4890908;29;20509;-86
2022/06/13 08:01:17;;;;;;;3.60;1.35;;;16.70;99.90;;;;;;4891420;29;20039;-84
2022/06/13 08:03:43;;;;;;;4.03;1.42;;;16.70;99.90;;;;;;4873247;29;20489;-84
2022/06/13 08:06:10;;;;;;;4.82;1.60;;;16.90;99.90;;;;;;4856655;29;20036;-84
2022/06/13 08:08:36;;;;;;;13.60;1.95;;;17.30;99.90;;;;;;4891145;29;20397;-82
2022/06/13 08:11:06;;;;;;;9.68;1.92;;;17.40;99.90;;;;;;4864079;29;20110;-83
2022/06/13 08:13:33;;;;;;;5.40;1.35;;;17.40;99.90;;;;;;4891178;29;20071;-82
2022/06/13 08:15:59;;;;;;;7.63;1.40;;;17.20;99.90;;;;;;4891029;29;20093;-83
2022/06/13 08:18:25;;;;;;;11.82;1.67;;;17.00;99.90;;;;;;4879282;29;20048;-82
2022/06/13 08:20:51;;;;;;;5.95;1.30;;;16.80;99.90;;;;;;4878913;29;20088;-82
2022/06/13 08:23:20;;;;;;;11.27;2.22;;;16.60;99.90;;;;;;4895184;29;20446;-82
2022/06/13 08:25:48;;;;;;;6.88;1.50;;;16.50;99.90;;;;;;4906096;29;20119;-82
2022/06/13 08:28:14;;;;;;;6.72;1.58;;;16.40;99.90;;;;;;4893340;29;20499;-82
2022/06/13 08:31:03;;;;;;;6.82;1.38;;;16.40;99.90;;;;;;4848469;29;20082;-82
2022/06/13 08:33:29;;;;;;;6.43;1.27;;;16.80;99.90;;;;;;4877604;29;20043;-82
2022/06/13 08:35:55;;;;;;;6.07;1.42;;;17.30;99.90;;;;;;4862649;29;20404;-83
2022/06/13 08:38:21;;;;;;;5.63;1.20;;;17.80;99.90;;;;;;4879173;29;20052;-83
2022/06/13 08:41:34;;;;;;;4.88;1.60;;;18.20;99.90;;;;;;4894144;29;20653;-84
2022/06/13 08:44:12;;;;;;;5.57;1.00;;;18.70;99.90;;;;;;4821351;29;20249;-83
2022/06/13 08:46:46;;;;;;;7.25;1.48;;;18.60;99.90;;;;;;4826766;29;20046;-83
2022/06/13 08:49:22;;;;;;;5.32;1.50;;;18.50;99.90;;;;;;4875109;29;20658;-83
2022/06/13 08:52:03;;;;;;;7.55;1.48;;;18.50;99.90;;;;;;4876929;29;20045;-83
2022/06/13 08:54:34;;;;;;;5.72;1.40;;;18.60;99.90;;;;;;4877620;29;20536;-83
2022/06/13 08:57:04;;;;;;;6.10;1.08;;;18.90;99.90;;;;;;4892903;29;20123;-83
2022/06/13 08:59:54;;;;;;;4.55;1.20;;;18.90;99.90;;;;;;4893519;29;20049;-83
2022/06/13 09:02:33;;;;;;;3.47;1.17;;;19.10;99.70;;;;;;4878641;29;20041;-82
2022/06/13 09:05:07;;;;;;;6.10;1.20;;;19.40;98.80;;;;;;4895128;29;20040;-83
2022/06/13 09:07:50;;;;;;;2.30;0.90;;;19.60;99.60;;;;;;4894032;29;20040;-82
2022/06/13 09:10:15;;;;;;;6.13;1.17;;;19.80;98.90;;;;;;4896268;29;20051;-83
2022/06/13 09:13:06;;;;;;;4.30;1.30;;;20.00;98.70;;;;;;4893517;29;20045;-83
2022/06/13 09:16:15;;;;;;;3.92;1.10;;;20.10;97.10;;;;;;4893381;29;20040;-83
2022/06/13 09:19:10;;;;;;;4.85;1.05;;;20.40;97.20;;;;;;4894138;29;20057;-84
2022/06/13 09:21:56;;;;;;;6.05;0.95;;;20.30;95.20;;;;;;4880689;29;20136;-83
2022/06/13 09:24:44;;;;;;;4.28;1.20;;;20.10;96.20;;;;;;4877978;29;20068;-83
2022/06/13 09:27:18;;;;;;;5.70;1.27;;;19.60;94.80;;;;;;4884093;29;20052;-83
2022/06/13 09:30:07;;;;;;;5.28;1.13;;;19.30;96.10;;;;;;4890629;29;20387;-85
2022/06/13 09:32:40;;;;;;;5.53;1.40;;;19.20;96.90;;;;;;4892116;29;20051;-84
2022/06/13 09:35:20;;;;;;;7.78;1.35;;;19.40;96.80;;;;;;4876239;29;20375;-84
2022/06/13 09:37:53;;;;;;;3.20;1.25;;;19.70;96.80;;;;;;4879571;29;20043;-83
2022/06/13 09:40:28;;;;;;;4.57;1.17;;;19.90;96.10;;;;;;4880851;29;20374;-84
2022/06/13 09:43:18;;;;;;;4.50;1.08;;;20.00;94.00;;;;;;4893184;29;20512;-85
2022/06/13 09:45:47;;;;;;;6.07;1.35;;;19.90;94.20;;;;;;4903465;29;20043;-84
2022/06/13 09:48:29;;;;;;;5.80;1.25;;;19.70;95.00;;;;;;4879618;29;20123;-84
2022/06/13 09:51:33;;;;;;;5.10;1.33;;;19.40;94.90;;;;;;4878236;29;20084;-84
2022/06/13 09:54:16;;;;;;;4.15;1.15;;;19.40;94.90;;;;;;4877487;29;20044;-85
2022/06/13 09:57:05;;;;;;;6.80;1.50;;;19.20;94.90;;;;;;4896189;29;20048;-85
2022/06/13 10:00:08;;;;;;;8.60;1.38;;;18.90;94.60;;;;;;4878624;29;20489;-85
2022/06/13 10:02:57;;;;;;;6.90;1.50;;;18.70;95.50;;;;;;4896369;29;20044;-84
2022/06/13 10:06:00;;;;;;;6.57;1.27;;;18.80;96.70;;;;;;4896705;29;20122;-85
2022/06/13 10:08:44;;;;;;;8.65;1.27;;;18.90;95.80;;;;;;4880105;29;20047;-84
2022/06/13 10:11:31;;;;;;;10.73;1.60;;;19.00;96.30;;;;;;4898337;29;20048;-84
2022/06/13 10:14:06;;;;;;;6.30;1.40;;;19.10;95.70;;;;;;4898700;29;20041;-85
2022/06/13 10:16:44;;;;;;;7.47;1.50;;;19.10;95.50;;;;;;4893894;29;20649;-84
2022/06/13 10:19:43;;;;;;;5.10;1.45;;;18.90;95.10;;;;;;4878557;29;20101;-83
2022/06/13 10:22:17;;;;;;;6.88;1.30;;;18.80;95.40;;;;;;4893810;29;20044;-83
2022/06/13 10:25:12;;;;;;;5.38;1.27;;;18.70;95.30;;;;;;4885454;29;20044;-83
2022/06/13 10:27:49;;;;;;;6.22;1.90;;;18.60;95.50;;;;;;4844995;29;20049;-83
2022/06/13 10:30:45;;;;;;;7.55;1.67;;;18.60;95.50;;;;;;4892401;29;20085;-84
2022/06/13 10:33:22;;;;;;;6.23;1.30;;;18.60;95.50;;;;;;4880252;29;20036;-84
2022/06/13 10:35:54;;;;;;;7.50;1.60;;;18.60;95.50;;;;;;4891957;29;20040;-82
2022/06/13 10:38:38;;;;;;;7.93;1.45;;;18.50;95.50;;;;;;4877112;29;20200;-84
2022/06/13 10:41:05;;;;;;;11.80;2.15;;;18.40;96.20;;;;;;4896179;29;20127;-85
2022/06/13 10:43:32;;;;;;;7.65;1.20;;;18.30;96.30;;;;;;4893881;29;20040;-84
2022/06/13 10:45:58;;;;;;;6.32;1.15;;;18.40;96.60;;;;;;4894077;29;20039;-84
2022/06/13 10:48:51;;;;;;;4.88;1.13;;;18.60;96.20;;;;;;4893492;29;20072;-83
2022/06/13 10:51:17;;;;;;;8.27;1.48;;;18.70;95.80;;;;;;4893057;29;20033;-83
2022/06/13 10:54:07;;;;;;;8.95;1.77;;;18.60;96.00;;;;;;4876979;29;20051;-84
2022/06/13 10:56:55;;;;;;;6.43;1.67;;;18.40;96.20;;;;;;4892666;29;20103;-84
2022/06/13 10:59:26;;;;;;;6.82;1.40;;;18.30;95.60;;;;;;4894948;29;20056;-84
2022/06/13 11:02:04;;;;;;;8.80;1.60;;;18.20;95.80;;;;;;4882664;29;20490;-82
2022/06/13 11:04:32;;;;;;;10.02;1.50;;;18.30;96.40;;;;;;4880186;29;20079;-86
2022/06/13 11:07:03;;;;;;;8.63;2.58;;;18.50;97.20;;;;;;4859528;29;20052;-84
2022/06/13 11:09:47;;;;;;;12.23;1.85;;;18.70;97.50;;;;;;4878599;29;20122;-84
2022/06/13 11:12:38;;;;;;;6.10;1.33;;;18.80;96.10;;;;;;4869171;29;20394;-84
2022/06/13 11:24:44;;;;;;;7.72;1.65;;;18.80;96.70;;;;;;4892522;29;20162;-85
2022/06/13 11:27:42;;;;;;;4.72;1.55;;;19.00;95.90;;;;;;4887205;29;20080;-85
2022/06/13 11:30:17;;;;;;;4.40;1.17;;;19.00;94.90;;;;;;4870120;29;20069;-84
2022/06/13 11:32:57;;;;;;;6.55;1.27;;;19.10;94.40;;;;;;4875014;29;20043;-85
2022/06/13 11:35:32;;;;;;;3.80;1.33;;;19.30;93.60;;;;;;4874514;29;20083;-84
2022/06/13 11:38:16;;;;;;;4.70;1.40;;;19.40;93.60;;;;;;4873533;29;20043;-84
2022/06/13 11:40:45;;;;;;;2.90;1.10;;;19.40;93.10;;;;;;4877397;29;20051;-86
2022/06/13 11:43:36;;;;;;;6.45;1.60;;;19.30;93.40;;;;;;4876760;29;20103;-84
2022/06/13 11:46:14;;;;;;;12.60;2.10;;;19.10;93.60;;;;;;4877432;29;20039;-85
2022/06/13 11:48:46;;;;;;;7.28;1.55;;;19.10;94.70;;;;;;4874375;29;20035;-85
2022/06/13 11:51:26;;;;;;;6.95;1.58;;;19.20;94.60;;;;;;4874169;29;20047;-85
2022/06/13 11:53:55;;;;;;;10.15;1.45;;;19.30;94.30;;;;;;4875724;29;20041;-85
2022/06/13 11:56:24;;;;;;;6.10;1.33;;;19.40;94.90;;;;;;4892820;29;20040;-86
2022/06/13 11:58:52;;;;;;;5.18;1.42;;;19.70;94.50;;;;;;4885275;29;20155;-83
2022/06/13 12:01:21;;;;;;;5.80;1.42;;;19.70;93.80;;;;;;4876057;29;20072;-84
2022/06/13 12:04:20;;;;;;;5.35;1.50;;;19.80;93.80;;;;;;4880689;29;20049;-85
2022/06/13 12:06:59;;;;;;;6.50;1.80;;;20.00;92.90;;;;;;4850397;29;20055;-84
2022/06/13 12:09:31;;;;;;;4.90;1.60;;;19.90;92.90;;;;;;4886417;29;20401;-84
2022/06/13 12:12:08;;;;;;;7.43;1.40;;;19.80;93.00;;;;;;4893205;29;20047;-85
2022/06/13 12:14:38;;;;;;;6.32;1.50;;;19.90;91.60;;;;;;4892387;29;20040;-84
2022/06/13 12:17:17;;;;;;;8.95;1.73;;;20.00;92.00;;;;;;4895460;29;20064;-84
2022/06/13 12:20:07;;;;;;;7.38;1.83;;;19.90;93.00;;;;;;4911138;29;20068;-84
2022/06/13 12:23:04;;;;;;;5.00;1.70;;;19.90;93.50;;;;;;4891296;29;20128;-85
2022/06/13 12:25:55;;;;;;;6.05;1.80;;;20.10;93.20;;;;;;4892699;29;20055;-84
2022/06/13 12:28:26;;;;;;;9.30;1.40;;;20.50;93.40;;;;;;4875712;29;20037;-84
2022/06/13 12:31:20;;;;;;;5.28;1.55;;;20.80;93.10;;;;;;4878225;29;20043;-83
2022/06/13 12:33:57;;;;;;;6.78;1.30;;;20.80;91.50;;;;;;4892585;29;20033;-84
2022/06/13 12:36:47;;;;;;;5.60;1.63;;;20.80;92.20;;;;;;4891261;29;20036;-83
2022/06/13 12:39:41;;;;;;;7.25;1.50;;;21.10;91.40;;;;;;4891255;29;20104;-83
2022/06/13 12:42:25;;;;;;;6.93;1.83;;;21.50;92.20;;;;;;4889989;29;20051;-84
2022/06/13 12:45:38;;;;;;;6.90;1.60;;;22.10;91.50;;;;;;4877308;29;20075;-84
2022/06/13 12:48:27;;;;;;;6.85;1.52;;;22.60;89.20;;;;;;4842840;29;20526;-84
2022/06/13 12:50:58;;;;;;;4.65;1.20;;;23.00;86.40;;;;;;4815613;29;20142;-84
2022/06/13 12:53:37;;;;;;;7.85;1.50;;;23.30;90.10;;;;;;4868990;29;20063;-84
2022/06/13 12:56:05;;;;;;;11.23;1.63;;;23.60;86.60;;;;;;4888490;29;21386;-83
2022/06/13 12:58:48;;;;;;;5.97;1.50;;;23.50;86.80;;;;;;4887949;29;20076;-83
2022/06/13 13:01:20;;;;;;;7.13;1.75;;;23.30;83.80;;;;;;4867808;29;20489;-84
2022/06/13 13:04:18;;;;;;;3.88;1.30;;;23.10;82.10;;;;;;4876178;29;20047;-83
2022/06/13 13:06:49;;;;;;;5.35;1.35;;;22.90;81.10;;;;;;4877942;29;20048;-84
2022/06/13 13:09:49;;;;;;;3.28;1.27;;;23.10;81.70;;;;;;4880296;29;20040;-84
2022/06/13 13:12:27;;;;;;;6.28;1.30;;;23.30;78.10;;;;;;4893454;29;20051;-82
2022/06/13 13:15:15;;;;;;;4.25;1.35;;;23.70;77.00;;;;;;4871030;29;20080;-83
2022/06/13 13:17:57;;;;;;;6.38;1.73;;;24.00;75.70;;;;;;4875651;29;20128;-83
2022/06/13 13:20:43;;;;;;;8.00;1.60;;;23.90;76.00;;;;;;4892488;29;20410;-84
2022/06/13 13:23:41;;;;;;;7.10;1.45;;;23.80;73.10;;;;;;4872716;29;20092;-84
2022/06/13 13:26:19;;;;;;;3.88;1.50;;;23.30;74.20;;;;;;4857274;29;20063;-83
2022/06/13 13:29:09;;;;;;;4.75;1.13;;;22.90;74.70;;;;;;4874073;29;20501;-83
2022/06/13 13:31:41;;;;;;;5.55;1.67;;;22.50;74.60;;;;;;4891439;29;20041;-82
2022/06/13 13:34:35;;;;;;;6.35;1.30;;;22.40;75.60;;;;;;4879934;29;20072;-83
2022/06/13 13:37:13;;;;;;;6.97;1.45;;;22.60;76.20;;;;;;4885407;29;20041;-83
2022/06/13 13:39:52;;;;;;;4.45;1.40;;;23.00;75.40;;;;;;4892166;29;20052;-84
2022/06/13 13:42:46;;;;;;;7.60;1.85;;;23.30;75.20;;;;;;4895341;29;20097;-84
2022/06/13 13:45:33;;;;;;;4.40;1.30;;;23.50;74.00;;;;;;4893559;29;20087;-87
2022/06/13 13:48:06;;;;;;;4.38;1.13;;;23.60;74.60;;;;;;4891652;29;20047;-85
2022/06/13 13:50:42;;;;;;;3.75;1.33;;;23.40;73.20;;;;;;4881536;29;21410;-85
2022/06/13 13:53:13;;;;;;;4.90;1.20;;;23.40;72.70;;;;;;4876883;29;20468;-86